Data for 09/17/2006

Time Sea-Level Adjusted Pressure Absolute Pressure Temperature Relative Humidity Dew Point Precipitation   
(mb) (inHg) (mb) (inHg) (C) (F) (%) (C) (F) (mm) (in)
00:01 1023 30.21 852 25.16 3.9 39.1 82 1.1 34.1 0
00:02 1023 30.21 852 25.16 3.9 39.1 83 1.3 34.3 0
00:03 1023 30.21 852 25.16 3.9 39.1 83 1.4 34.4 0
00:04 1023 30.21 852 25.16 3.9 39.1 83 1.3 34.3 0
00:05 1023 30.21 852 25.16 3.9 39.1 83 1.3 34.4 0
00:06 1023 30.21 852 25.16 3.9 39.1 82 1.2 34.1 0
00:07 1023 30.21 852 25.16 4 39.1 82 1.2 34.2 0
00:08 1023 30.21 852 25.16 4 39.2 83 1.3 34.3 0
00:09 1023 30.21 852 25.16 4 39.1 82 1.2 34.1 0
00:10 1023 30.21 852 25.16 4 39.1 82 1.2 34.2 0
00:11 1023 30.21 852 25.16 4 39.2 82 1.1 34 0
00:12 1023 30.21 852 25.16 4 39.2 82 1.2 34.2 0
00:13 1023 30.21 852 25.16 4 39.2 81 1.1 34 0
00:14 1023 30.21 852 25.16 4.1 39.3 82 1.2 34.2 0
00:15 1023 30.21 852 25.16 4 39.3 80 1 33.8 0
00:16 1023 30.21 852 25.16 4.1 39.4 80 0.9 33.7 0
00:17 1023 30.21 852 25.16 4.1 39.4 81 1.1 33.9 0
00:18 1023 30.21 852 25.16 4.2 39.5 80 1 33.8 0
00:19 1023 30.21 852 25.16 4.2 39.5 79 0.8 33.4 0
00:20 1023 30.21 852 25.16 4.2 39.6 79 0.9 33.7 0
00:21 1023 30.21 852 25.16 4.2 39.6 81 1.2 34.1 0
00:22 1023 30.21 852 25.16 4.2 39.5 80 1.1 33.9 0
00:23 1023 30.21 852 25.16 4.1 39.4 81 1.1 34 0
00:24 1023 30.21 852 25.16 4.1 39.4 81 1.1 33.9 0
00:25 1023 30.21 852 25.16 4.1 39.4 80 1 33.8 0
00:26 1023 30.21 852 25.16 4.1 39.3 80 1 33.7 0
00:27 1023 30.21 852 25.16 4.1 39.3 80 1 33.8 0
00:28 1023 30.21 852 25.16 4 39.3 81 1.1 33.9 0
00:29 1023 30.21 852 25.16 4 39.2 81 0.9 33.7 0
00:30 1023 30.21 852 25.16 4 39.2 81 1 33.7 0
00:31 1023 30.21 852 25.16 4 39.1 81 1 33.9 0
00:32 1023 30.21 852 25.16 3.9 39 82 1.1 33.9 0
00:33 1023 30.21 852 25.16 3.9 39 82 1.1 33.9 0
00:34 1023 30.21 852 25.16 3.9 38.9 82 1 33.9 0
00:35 1023 30.21 852 25.16 3.9 39 81 0.9 33.6 0
00:36 1023 30.21 852 25.16 3.9 38.9 81 0.9 33.6 0
00:37 1023 30.21 852 25.16 3.9 39 81 0.9 33.6 0
00:38 1023 30.21 852 25.16 3.9 39.1 80 0.8 33.4 0
00:39 1023 30.21 852 25.16 3.9 39 81 0.9 33.6 0
00:40 1023 30.21 852 25.16 3.9 39.1 80 0.8 33.4 0
00:41 1023 30.21 852 25.16 4 39.1 79 0.7 33.2 0
00:42 1023 30.21 852 25.16 4 39.1 80 0.8 33.4 0
00:43 1023 30.21 852 25.16 4 39.1 79 0.7 33.3 0
00:44 1023 30.21 852 25.16 4 39.2 80 0.8 33.4 0
00:45 1023 30.21 852 25.16 4 39.2 78 0.6 33 0
00:46 1023 30.21 852 25.16 4 39.2 79 0.6 33.1 0
00:47 1023 30.21 852 25.16 4 39.2 79 0.7 33.3 0
00:48 1023 30.21 852 25.16 4 39.2 79 0.6 33.1 0
00:49 1023 30.21 852 25.16 4 39.2 78 0.6 33.1 0
00:50 1023 30.21 852 25.16 4 39.2 79 0.7 33.2 0
00:51 1023 30.21 852 25.16 4 39.2 79 0.6 33.1 0
00:52 1023 30.21 852 25.16 4 39.2 79 0.6 33.2 0
00:53 1023 30.21 852 25.16 4 39.2 78 0.6 33.1 0
00:54 1023 30.21 852 25.16 4 39.2 78 0.5 33 0
00:55 1023 30.21 852 25.16 4.1 39.3 77 0.4 32.8 0
00:56 1023 30.21 852 25.16 4.1 39.3 78 0.6 33 0
00:57 1023 30.21 852 25.16 4.1 39.3 78 0.5 32.9 0
00:58 1023 30.21 852 25.16 4.1 39.3 77 0.4 32.7 0
00:59 1023 30.21 852 25.16 4.1 39.3 77 0.5 32.9 0
01:00 1023 30.21 852 25.16 4.1 39.3 76 0.3 32.5 0
01:01 1023 30.21 852 25.16 4.1 39.3 77 0.3 32.6 0
01:02 1023 30.21 852 25.16 4.1 39.4 78 0.5 32.9 0
01:03 1023 30.21 852 25.16 4.1 39.3 78 0.5 33 0
01:04 1023 30.21 852 25.16 4 39.3 78 0.5 32.9 0
01:05 1023 30.21 852 25.16 4 39.2 77 0.3 32.6 0
01:06 1023 30.21 852 25.16 4 39.3 77 0.4 32.7 0
01:07 1023 30.21 852 25.16 4 39.2 77 0.4 32.7 0
01:08 1023 30.21 852 25.16 4 39.3 77 0.4 32.8 0
01:09 1023 30.21 852 25.16 4 39.3 77 0.4 32.8 0
01:10 1023 30.21 852 25.16 4.1 39.3 77 0.4 32.7 0
01:11 1023 30.21 852 25.16 4 39.3 77 0.4 32.8 0
01:12 1023 30.21 852 25.16 4 39.3 77 0.4 32.8 0
01:13 1023 30.21 852 25.16 4 39.2 77 0.4 32.7 0
01:14 1023 30.21 852 25.16 4 39.2 77 0.4 32.7 0
01:15 1023 30.21 852 25.16 4 39.2 78 0.4 32.8 0
01:16 1023 30.21 852 25.16 4 39.2 77 0.3 32.5 0
01:17 1023 30.21 852 25.16 4 39.2 77 0.3 32.5 0
01:18 1023 30.21 852 25.16 4.1 39.3 77 0.3 32.6 0
01:19 1023 30.21 852 25.16 4 39.3 75 0.1 32.1 0
01:20 1023 30.21 852 25.16 4.1 39.4 76 0.2 32.4 0
01:21 1023 30.21 852 25.16 4.1 39.3 76 0.2 32.3 0
01:22 1023 30.21 852 25.16 4.1 39.4 74 -0.1 31.9 0
01:23 1023 30.21 852 25.16 4.1 39.4 74 -0 32 0
01:24 1023 30.21 852 25.16 4.2 39.5 75 0.1 32.2 0
01:25 1023 30.21 852 25.16 4.2 39.5 75 0.1 32.1 0
01:26 1023 30.21 852 25.16 4.2 39.5 76 0.3 32.6 0
01:27 1023 30.21 852 25.16 4.2 39.5 75 0.1 32.2 0
01:28 1023 30.21 852 25.16 4.1 39.4 75 0.1 32.3 0
01:29 1023 30.21 852 25.16 4.1 39.5 74 0 32 0
01:30 1023 30.21 852 25.16 4.1 39.4 75 0.1 32.2 0
01:31 1023 30.21 852 25.16 4.1 39.4 76 0.2 32.4 0
01:32 1023 30.21 852 25.16 4.1 39.4 76 0.3 32.5 0
01:33 1023 30.21 852 25.16 4.1 39.3 75 -0 32 0
01:34 1023 30.21 852 25.16 4.1 39.4 75 0 32.1 0
01:35 1023 30.21 852 25.16 4.1 39.4 75 0.1 32.2 0
01:36 1023 30.21 852 25.16 4.1 39.4 75 0 32 0
01:37 1023 30.21 852 25.16 4.1 39.4 73 -0.3 31.5 0
01:38 1023 30.21 852 25.16 4.2 39.5 74 -0 32 0
01:39 1023 30.21 852 25.16 4.2 39.5 74 0 32.1 0
01:40 1023 30.21 852 25.16 4.2 39.6 75 0.2 32.3 0
01:41 1023 30.21 852 25.16 4.2 39.6 74 0 32 0
01:42 1023 30.21 852 25.16 4.2 39.5 74 -0.1 31.9 0
01:43 1023 30.21 852 25.16 4.2 39.5 73 -0.2 31.6 0
01:44 1023 30.21 852 25.16 4.2 39.6 74 -0.1 31.9 0
01:45 1023 30.21 852 25.16 4.2 39.6 74 0.1 32.1 0
01:46 1023 30.21 852 25.16 4.2 39.5 74 0 32 0
01:47 1023 30.21 852 25.16 4.2 39.5 75 0.1 32.2 0
01:48 1023 30.21 852 25.16 4.2 39.5 75 0.1 32.2 0
01:49 1023 30.21 852 25.16 4.1 39.4 75 0 32 0
01:50 1023 30.21 852 25.16 4.1 39.4 75 -0 32 0
01:51 1023 30.21 852 25.16 4.1 39.4 74 -0 32 0
01:52 1023 30.21 852 25.16 4.1 39.4 74 -0.1 31.7 0
01:53 1023 30.21 852 25.16 4.1 39.4 73 -0.3 31.5 0
01:54 1023 30.21 852 25.16 4.2 39.5 74 -0.1 31.9 0
01:55 1023 30.21 852 25.16 4.2 39.5 74 0 32 0
01:56 1023 30.21 852 25.16 4.2 39.6 74 0 32 0
01:57 1023 30.21 852 25.16 4.1 39.3 74 -0.2 31.7 0
01:58 1023 30.21 852 25.16 4.1 39.4 74 -0.1 31.8 0
01:59 1023 30.21 852 25.16 4.2 39.5 74 -0.1 31.9 0
02:00 1023 30.21 852 25.16 4.1 39.4 73 -0.2 31.6 0
02:01 1023 30.21 852 25.16 4.1 39.4 74 -0.1 31.9 0
02:02 1023 30.21 852 25.16 4.1 39.4 74 -0.1 31.9 0
02:03 1023 30.21 852 25.16 4.1 39.4 74 -0.1 31.8 0
02:04 1023 30.21 853 25.19 4.1 39.4 75 0 32.1 0
02:05 1023 30.21 853 25.19 4.1 39.4 75 0.1 32.1 0
02:06 1023 30.21 852 25.16 4.1 39.3 75 0.1 32.2 0
02:07 1023 30.21 852 25.16 4 39.3 75 0.1 32.2 0
02:08 1023 30.21 852 25.16 4.1 39.3 74 -0.1 31.9 0
02:09 1023 30.21 853 25.19 4 39.2 74 -0.2 31.7 0
02:10 1023 30.21 853 25.19 4 39.3 75 -0 32 0
02:11 1023 30.21 853 25.19 4.1 39.3 73 -0.3 31.4 0
02:12 1023 30.21 853 25.19 4.1 39.4 74 -0.1 31.8 0
02:13 1023 30.21 853 25.19 4.1 39.3 75 -0 32 0
02:14 1023 30.21 853 25.19 4.1 39.3 75 -0 32 0
02:15 1023 30.21 853 25.19 4.1 39.3 75 -0 31.9 0
02:16 1023 30.21 853 25.19 4.1 39.3 74 -0.1 31.7 0
02:17 1023 30.21 853 25.19 4.1 39.3 75 0.1 32.2 0
02:18 1023 30.21 853 25.19 4 39.3 74 -0.2 31.6 0
02:19 1023 30.21 853 25.19 4.1 39.3 73 -0.4 31.3 0
02:20 1023 30.21 853 25.19 4.2 39.5 73 -0.3 31.5 0
02:21 1023 30.21 853 25.19 4.2 39.6 73 -0.2 31.7 0
02:22 1023 30.21 853 25.19 4.2 39.6 73 -0.1 31.7 0
02:23 1023 30.21 853 25.19 4.2 39.5 72 -0.4 31.2 0
02:24 1023 30.21 853 25.19 4.2 39.6 73 -0.3 31.5 0
02:25 1023 30.21 853 25.19 4.2 39.6 73 -0.1 31.7 0
02:26 1023 30.21 853 25.19 4.2 39.6 72 -0.4 31.2 0
02:27 1023 30.21 852 25.16 4.2 39.6 73 -0.3 31.5 0
02:28 1023 30.21 852 25.16 4.2 39.6 72 -0.4 31.2 0
02:29 1023 30.21 852 25.16 4.3 39.7 71 -0.6 30.9 0
02:30 1023 30.21 852 25.16 4.4 39.9 70 -0.6 30.9 0
02:31 1023 30.21 852 25.16 4.4 40 69 -0.8 30.5 0
02:32 1023 30.21 853 25.19 4.6 40.2 68 -0.8 30.6 0
02:33 1023 30.21 853 25.19 4.7 40.4 69 -0.5 31.2 0
02:34 1023 30.21 852 25.16 4.6 40.4 70 -0.3 31.4 0
02:35 1023 30.21 852 25.16 4.6 40.3 69 -0.7 30.8 0
02:36 1023 30.21 853 25.19 4.6 40.3 70 -0.4 31.3 0
02:37 1023 30.21 853 25.19 4.6 40.3 69 -0.5 31.1 0
02:38 1023 30.21 852 25.16 4.6 40.3 69 -0.5 31.1 0
02:39 1023 30.21 852 25.16 4.6 40.3 70 -0.4 31.2 0
02:40 1023 30.21 852 25.16 4.6 40.3 69 -0.6 31 0
02:41 1023 30.21 853 25.19 4.6 40.3 70 -0.4 31.2 0
02:42 1023 30.21 853 25.19 4.6 40.3 71 -0.3 31.5 0
02:43 1023 30.21 853 25.19 4.6 40.2 70 -0.3 31.4 0
02:44 1023 30.21 853 25.19 4.6 40.3 69 -0.6 31 0
02:45 1023 30.21 853 25.19 4.6 40.2 69 -0.7 30.8 0
02:46 1023 30.21 853 25.19 4.6 40.2 69 -0.5 31 0
02:47 1023 30.21 853 25.19 4.6 40.3 68 -0.9 30.4 0
02:48 1023 30.21 853 25.19 4.6 40.3 71 -0.3 31.5 0
02:49 1023 30.21 853 25.19 4.6 40.2 71 -0.2 31.7 0
02:50 1023 30.21 853 25.19 4.5 40.1 72 -0.1 31.7 0
02:51 1023 30.21 853 25.19 4.4 39.9 73 -0.1 31.8 0
02:52 1023 30.21 853 25.19 4.3 39.7 73 -0.1 31.9 0
02:53 1023 30.21 853 25.19 4.2 39.6 74 -0 32 0
02:54 1023 30.21 853 25.19 4.2 39.5 74 -0 32 0
02:55 1023 30.21 853 25.19 4.1 39.4 74 -0.1 31.8 0
02:56 1023 30.21 853 25.19 4.1 39.4 74 -0.1 31.8 0
02:57 1023 30.21 853 25.19 4.1 39.4 75 0.1 32.2 0
02:58 1023 30.21 853 25.19 4 39.2 75 0 32.1 0
02:59 1023 30.21 853 25.19 4 39.2 76 0.1 32.2 0
03:00 1023 30.21 853 25.19 3.9 39 76 0 32 0
03:01 1023 30.21 853 25.19 3.9 39 77 0.2 32.3 0
03:02 1023 30.21 853 25.19 3.9 39 77 0.2 32.4 0
03:03 1023 30.21 853 25.19 3.8 38.9 77 0.2 32.3 0
03:04 1023 30.21 853 25.19 3.8 38.8 77 0.1 32.2 0
03:05 1023 30.21 853 25.19 3.8 38.8 77 0.1 32.2 0
03:06 1023 30.21 853 25.19 3.8 38.9 76 -0 31.9 0
03:07 1023 30.21 853 25.19 3.9 38.9 77 0.1 32.2 0
03:08 1023 30.21 853 25.19 3.9 38.9 75 -0.2 31.7 0
03:09 1023 30.21 853 25.19 3.9 39 76 -0 32 0
03:10 1023 30.21 853 25.19 4 39.1 75 -0.1 31.9 0
03:11 1023 30.21 853 25.19 4 39.1 75 -0.1 31.9 0
03:12 1023 30.21 853 25.19 4 39.2 75 -0.1 31.8 0
03:13 1023 30.21 853 25.19 4 39.1 76 0 32.1 0
03:14 1023 30.21 853 25.19 4 39.2 76 0.1 32.2 0
03:15 1023 30.21 853 25.19 4 39.1 76 0.1 32.1 0
03:16 1023 30.21 853 25.19 3.9 39.1 76 0.1 32.1 0
03:17 1023 30.21 853 25.19 3.9 39.1 76 0 32.1 0
03:18 1023 30.21 853 25.19 4 39.1 75 -0 31.9 0
03:19 1023 30.21 853 25.19 4 39.2 75 -0 31.9 0
03:20 1023 30.21 853 25.19 4 39.2 75 0 32 0
03:21 1023 30.21 852 25.16 4 39.2 75 0 32 0
03:22 1023 30.21 852 25.16 4 39.1 76 0.1 32.2 0
03:23 1023 30.21 852 25.16 3.9 39.1 76 0.1 32.2 0
03:24 1023 30.21 852 25.16 3.9 39.1 75 -0 32 0
03:25 1023 30.21 852 25.16 3.9 39 77 0.2 32.4 0
03:26 1023 30.21 852 25.16 3.9 38.9 76 0.1 32.1 0
03:27 1023 30.21 852 25.16 3.9 39 76 -0 32 0
03:28 1023 30.21 853 25.19 3.9 39 76 0.1 32.1 0
03:29 1023 30.21 853 25.19 3.8 38.9 76 0 32 0
03:30 1023 30.21 853 25.19 3.8 38.9 76 -0 32 0
03:31 1023 30.21 853 25.19 3.8 38.9 76 0.1 32.1 0
03:32 1023 30.21 853 25.19 3.9 39 76 0.1 32.2 0
03:33 1023 30.21 853 25.19 3.9 38.9 77 0.2 32.3 0
03:34 1023 30.21 853 25.19 3.8 38.9 77 0.1 32.2 0
03:35 1023 30.21 853 25.19 3.8 38.9 77 0.2 32.4 0
03:36 1023 30.21 853 25.19 3.8 38.8 77 0.1 32.1 0
03:37 1023 30.21 853 25.19 3.8 38.8 77 0 32.1 0
03:38 1023 30.21 853 25.19 3.8 38.8 77 0.1 32.1 0
03:39 1023 30.21 852 25.16 3.8 38.8 77 0.1 32.2 0
03:40 1023 30.21 852 25.16 3.8 38.8 76 -0.1 31.9 0
03:41 1023 30.21 852 25.16 3.8 38.8 77 0.1 32.1 0
03:42 1023 30.21 852 25.16 3.8 38.8 77 0.2 32.3 0
03:43 1023 30.21 852 25.16 3.7 38.7 77 0 32.1 0
03:44 1023 30.21 852 25.16 3.7 38.7 77 0.1 32.1 0
03:45 1023 30.21 852 25.16 3.7 38.7 76 -0.1 31.9 0
03:46 1023 30.21 852 25.16 3.7 38.7 77 0.1 32.2 0
03:47 1023 30.21 852 25.16 3.7 38.7 77 0.1 32.2 0
03:48 1023 30.21 852 25.16 3.7 38.6 76 -0.1 31.8 0
03:49 1023 30.21 852 25.16 3.7 38.7 77 -0 32 0
03:50 1023 30.21 852 25.16 3.8 38.8 77 0.1 32.1 0
03:51 1023 30.21 852 25.16 3.7 38.7 77 0.1 32.2 0
03:52 1023 30.21 852 25.16 3.7 38.7 76 -0.1 31.9 0
03:53 1023 30.21 852 25.16 3.7 38.7 76 -0.2 31.7 0
03:54 1023 30.21 852 25.16 3.8 38.8 77 0 32.1 0
03:55 1023 30.21 852 25.16 3.8 38.8 78 0.2 32.3 0
03:56 1023 30.21 852 25.16 3.7 38.7 77 0 32 0
03:57 1023 30.21 852 25.16 3.7 38.7 76 -0 32 0
03:58 1023 30.21 852 25.16 3.8 38.8 76 -0.1 31.9 0
03:59 1023 30.21 852 25.16 3.8 38.8 77 0.1 32.2 0
04:00 1023 30.21 852 25.16 3.8 38.8 77 0.1 32.1 0
04:01 1023 30.21 852 25.16 3.8 38.9 75 -0.3 31.5 0
04:02 1023 30.21 852 25.16 3.9 39 76 0 32 0
04:03 1023 30.21 852 25.16 3.9 39 75 -0.1 31.8 0
04:04 1023 30.21 852 25.16 3.9 39.1 74 -0.3 31.5 0
04:05 1023 30.21 852 25.16 4 39.1 73 -0.4 31.4 0
04:06 1023 30.21 852 25.16 4 39.3 74 -0.1 31.8 0
04:07 1023 30.21 852 25.16 4.1 39.3 74 -0.2 31.7 0
04:08 1023 30.21 852 25.16 4 39.3 74 -0.3 31.5 0
04:09 1023 30.21 852 25.16 4.1 39.4 74 -0.2 31.6 0
04:10 1023 30.21 852 25.16 4.1 39.4 74 -0 32 0
04:11 1023 30.21 852 25.16 4.1 39.4 74 -0.1 31.7 0
04:12 1023 30.21 852 25.16 4.1 39.4 73 -0.3 31.5 0
04:13 1023 30.21 852 25.16 4.1 39.4 74 -0.2 31.7 0
04:14 1023 30.21 852 25.16 4.2 39.5 74 -0.1 31.8 0
04:15 1023 30.21 852 25.16 4.2 39.5 73 -0.2 31.6 0
04:16 1023 30.21 852 25.16 4.2 39.6 72 -0.3 31.5 0
04:17 1023 30.21 852 25.16 4.3 39.7 71 -0.5 31 0
04:18 1023 30.21 852 25.16 4.3 39.8 71 -0.4 31.2 0
04:19 1023 30.21 852 25.16 4.4 39.9 69 -0.8 30.6 0
04:20 1023 30.21 852 25.16 4.5 40 70 -0.5 31.2 0
04:21 1023 30.21 852 25.16 4.5 40.1 68 -0.9 30.3 0
04:22 1023 30.21 852 25.16 4.6 40.3 67 -0.9 30.3 0
04:23 1023 30.21 852 25.16 4.6 40.3 68 -0.7 30.7 0
04:24 1023 30.21 852 25.16 4.7 40.4 68 -0.7 30.8 0
04:25 1023 30.21 852 25.16 4.7 40.4 68 -0.8 30.6 0
04:26 1023 30.21 852 25.16 4.8 40.6 68 -0.7 30.7 0
04:27 1023 30.21 852 25.16 4.7 40.5 68 -0.7 30.7 0
04:28 1023 30.21 852 25.16 4.7 40.5 67 -0.8 30.5 0
04:29 1023 30.21 852 25.16 4.7 40.5 68 -0.6 30.9 0
04:30 1023 30.21 852 25.16 4.7 40.5 68 -0.7 30.7 0
04:31 1023 30.21 852 25.16 4.8 40.6 66 -1.1 30.1 0
04:32 1023 30.21 852 25.16 4.8 40.6 67 -0.8 30.6 0
04:33 1023 30.21 852 25.16 4.8 40.6 66 -1 30.2 0
04:34 1023 30.21 852 25.16 4.8 40.7 63 -1.6 29.1 0
04:35 1023 30.21 852 25.16 4.9 40.8 63 -1.6 29.2 0
04:36 1023 30.21 852 25.16 5 41 65 -1 30.2 0
04:37 1023 30.21 852 25.16 5.1 41.1 63 -1.3 29.6 0
04:38 1023 30.21 852 25.16 5.1 41.2 63 -1.4 29.4 0
04:39 1023 30.21 852 25.16 5.2 41.3 64 -1.1 30 0
04:40 1023 30.21 852 25.16 5.2 41.3 63 -1.4 29.5 0
04:41 1023 30.21 852 25.16 5.1 41.2 63 -1.3 29.7 0
04:42 1023 30.21 852 25.16 5.1 41.2 62 -1.5 29.3 0
04:43 1023 30.21 852 25.16 5.1 41.3 61 -1.7 29 0
04:44 1023 30.21 852 25.16 5.2 41.4 63 -1.3 29.6 0
04:45 1023 30.21 852 25.16 5.2 41.3 62 -1.4 29.5 0
04:46 1023 30.21 852 25.16 5.1 41.2 64 -1 30.1 0
04:47 1023 30.21 852 25.16 5.1 41.1 63 -1.4 29.6 0
04:48 1023 30.21 852 25.16 5 41 65 -1 30.2 0
04:49 1023 30.21 852 25.16 5 41 65 -1 30.2 0
04:50 1023 30.21 852 25.16 4.9 40.9 64 -1.4 29.5 0
04:51 1023 30.21 852 25.16 5 40.9 64 -1.4 29.6 0
04:52 1023 30.21 852 25.16 5 41 64 -1.3 29.7 0
04:53 1023 30.21 852 25.16 5 41 65 -1 30.2 0
04:54 1023 30.21 852 25.16 5 40.9 64 -1.3 29.6 0
04:55 1023 30.21 852 25.16 5 40.9 65 -1 30.2 0
04:56 1023 30.21 852 25.16 4.9 40.9 65 -1 30.1 0
04:57 1023 30.21 852 25.16 4.9 40.8 66 -0.9 30.3 0
04:58 1023 30.21 852 25.16 4.9 40.7 65 -1.1 29.9 0
04:59 1023 30.21 852 25.16 4.8 40.7 66 -1 30.2 0
05:00 1023 30.21 852 25.16 4.8 40.6 67 -0.9 30.4 0
05:01 1023 30.21 852 25.16 4.7 40.5 66 -1 30.2 0
05:02 1023 30.21 852 25.16 4.7 40.5 65 -1.3 29.6 0
05:03 1023 30.21 852 25.16 4.7 40.5 65 -1.3 29.7 0
05:04 1023 30.21 852 25.16 4.7 40.5 66 -1.1 30.1 0
05:05 1023 30.21 852 25.16 4.7 40.5 65 -1.3 29.7 0
05:06 1023 30.21 852 25.16 4.7 40.4 66 -1 30.1 0
05:07 1023 30.21 852 25.16 4.7 40.5 66 -1.2 29.9 0
05:08 1023 30.21 852 25.16 4.7 40.5 66 -1 30.1 0
05:09 1023 30.21 852 25.16 4.7 40.5 66 -1.2 29.9 0
05:10 1023 30.21 852 25.16 4.7 40.5 65 -1.2 29.8 0
05:11 1023 30.21 852 25.16 4.7 40.5 66 -1.1 29.9 0
05:12 1023 30.21 852 25.16 4.7 40.5 66 -1 30.2 0
05:13 1023 30.21 852 25.16 4.7 40.4 67 -0.9 30.4 0
05:14 1023 30.21 852 25.16 4.7 40.4 66 -1.1 30 0
05:15 1023 30.21 852 25.16 4.7 40.4 66 -1 30.1 0
05:16 1023 30.21 852 25.16 4.6 40.3 66 -1.2 29.9 0
05:17 1023 30.21 852 25.16 4.6 40.2 66 -1.1 30 0
05:18 1023 30.21 852 25.16 4.6 40.3 68 -0.8 30.6 0
05:19 1023 30.21 852 25.16 4.5 40.2 67 -1 30.1 0
05:20 1023 30.21 852 25.16 4.5 40.1 67 -1.1 30.1 0
05:21 1023 30.21 852 25.16 4.5 40.1 68 -1 30.3 0
05:22 1023 30.21 852 25.16 4.5 40 68 -1 30.3 0
05:23 1023 30.21 852 25.16 4.4 40 67 -1.2 29.8 0
05:24 1023 30.21 852 25.16 4.5 40.1 67 -1.1 30.1 0
05:25 1023 30.21 852 25.16 4.5 40.1 68 -1 30.2 0
05:26 1023 30.21 852 25.16 4.5 40 68 -0.9 30.4 0
05:27 1023 30.21 852 25.16 4.4 40 68 -1 30.2 0
05:28 1023 30.21 852 25.16 4.4 39.9 68 -1 30.3 0
05:29 1023 30.21 852 25.16 4.4 40 67 -1.1 30 0
05:30 1023 30.21 852 25.16 4.4 39.9 68 -1.1 30.1 0
05:31 1023 30.21 852 25.16 4.4 39.9 67 -1.3 29.7 0
05:32 1023 30.21 852 25.16 4.4 39.9 66 -1.3 29.7 0
05:33 1023 30.21 852 25.16 4.4 39.9 68 -1 30.2 0
05:34 1023 30.21 852 25.16 4.4 39.9 66 -1.3 29.7 0
05:35 1023 30.21 852 25.16 4.4 39.9 67 -1.3 29.7 0
05:36 1023 30.21 852 25.16 4.4 39.9 68 -1.1 30.1 0
05:37 1023 30.21 852 25.16 4.4 39.9 66 -1.4 29.5 0
05:38 1023 30.21 852 25.16 4.4 39.9 66 -1.4 29.4 0
05:39 1023 30.21 852 25.16 4.4 40 66 -1.4 29.5 0
05:40 1023 30.21 852 25.16 4.4 39.9 67 -1.1 30.1 0
05:41 1023 30.21 852 25.16 4.4 40 67 -1.1 30 0
05:42 1023 30.21 852 25.16 4.4 39.8 67 -1.3 29.7 0
05:43 1023 30.21 852 25.16 4.3 39.8 66 -1.5 29.2 0
05:44 1023 30.21 852 25.16 4.4 39.9 65 -1.6 29.2 0
05:45 1023 30.21 852 25.16 4.4 39.9 66 -1.4 29.4 0
05:46 1023 30.21 852 25.16 4.4 40 65 -1.5 29.3 0
05:47 1023 30.21 852 25.16 4.4 39.9 65 -1.6 29.1 0
05:48 1023 30.21 852 25.16 4.4 39.9 65 -1.7 29 0
05:49 1023 30.21 852 25.16 4.4 39.9 65 -1.5 29.3 0
05:50 1023 30.21 852 25.16 4.4 39.9 65 -1.5 29.2 0
05:51 1023 30.21 852 25.16 4.4 40 65 -1.6 29.1 0
05:52 1023 30.21 852 25.16 4.4 39.9 65 -1.6 29.1 0
05:53 1023 30.21 852 25.16 4.3 39.8 65 -1.7 28.9 0
05:54 1023 30.21 852 25.16 4.4 39.9 65 -1.7 29 0
05:55 1023 30.21 852 25.16 4.4 39.9 65 -1.6 29.2 0
05:56 1023 30.21 852 25.16 4.4 39.8 65 -1.7 29 0
05:57 1023 30.21 852 25.16 4.4 39.9 65 -1.7 28.9 0
05:58 1023 30.21 852 25.16 4.4 39.9 65 -1.7 29 0
05:59 1023 30.21 852 25.16 4.4 39.9 64 -1.8 28.8 0
06:00 1023 30.21 852 25.16 4.4 39.9 65 -1.5 29.3 0
06:01 1023 30.21 852 25.16 4.4 39.9 65 -1.5 29.3 0
06:02 1023 30.21 852 25.16 4.3 39.8 66 -1.4 29.4 0
06:03 1023 30.21 852 25.16 4.3 39.8 66 -1.6 29.2 0
06:04 1023 30.21 852 25.16 4.3 39.7 65 -1.6 29.1 0
06:05 1023 30.21 852 25.16 4.3 39.7 65 -1.7 28.9 0
06:06 1023 30.21 852 25.16 4.3 39.7 65 -1.7 28.9 0
06:07 1023 30.21 852 25.16 4.3 39.7 66 -1.5 29.4 0
06:08 1023 30.21 852 25.16 4.2 39.6 65 -1.8 28.8 0
06:09 1023 30.21 852 25.16 4.2 39.5 64 -1.9 28.5 0
06:10 1023 30.21 852 25.16 4.2 39.6 64 -2 28.5 0
06:11 1023 30.21 852 25.16 4.3 39.7 64 -1.9 28.5 0
06:12 1023 30.21 852 25.16 4.4 39.9 63 -2.1 28.2 0
06:13 1023 30.21 852 25.16 4.4 39.9 63 -2.1 28.2 0
06:14 1023 30.21 852 25.16 4.5 40.1 61 -2.5 27.6 0
06:15 1023 30.21 852 25.16 4.6 40.2 63 -1.9 28.6 0
06:16 1023 30.21 852 25.16 4.6 40.3 63 -1.9 28.6 0
06:17 1023 30.21 852 25.16 4.7 40.4 61 -2.3 27.9 0
06:18 1023 30.21 852 25.16 4.7 40.4 63 -1.8 28.7 0
06:19 1023 30.21 852 25.16 4.7 40.5 62 -1.9 28.6 0
06:20 1023 30.21 852 25.16 4.7 40.4 63 -1.9 28.6 0
06:21 1023 30.21 852 25.16 4.7 40.4 61 -2.1 28.2 0
06:22 1023 30.21 852 25.16 4.7 40.4 63 -1.7 28.9 0
06:23 1023 30.21 852 25.16 4.7 40.5 63 -1.7 29 0
06:24 1023 30.21 852 25.16 4.7 40.4 63 -1.8 28.7 0
06:25 1023 30.21 852 25.16 4.7 40.4 64 -1.6 29.1 0
06:26 1023 30.21 852 25.16 4.6 40.3 63 -1.9 28.6 0
06:27 1023 30.21 852 25.16 4.7 40.4 64 -1.5 29.3 0
06:28 1023 30.21 852 25.16 4.6 40.3 61 -2.1 28.1 0
06:29 1023 30.21 852 25.16 4.7 40.5 61 -2.1 28.1 0
06:30 1023 30.21 852 25.16 4.8 40.6 61 -2.2 28.1 0
06:31 1023 30.21 852 25.16 4.8 40.6 62 -1.8 28.8 0
06:32 1023 30.21 852 25.16 4.8 40.6 61 -2.1 28.3 0
06:33 1023 30.21 852 25.16 4.8 40.7 60 -2.2 28.1 0
06:34 1023 30.21 852 25.16 4.9 40.8 59 -2.4 27.7 0
06:35 1023 30.21 852 25.16 4.9 40.9 60 -2.3 27.9 0
06:36 1023 30.21 852 25.16 4.9 40.9 58 -2.7 27.1 0
06:37 1023 30.21 852 25.16 5 41 60 -2.1 28.3 0
06:38 1023 30.21 852 25.16 5.1 41.1 60 -2 28.5 0
06:39 1023 30.21 852 25.16 5 41.1 61 -1.9 28.5 0
06:40 1023 30.21 852 25.16 5 40.9 62 -1.7 29 0
06:41 1023 30.21 852 25.16 5 41 62 -1.7 28.9 0
06:42 1023 30.21 852 25.16 5 40.9 62 -1.8 28.8 0
06:43 1023 30.21 852 25.16 4.9 40.8 62 -1.7 28.9 0
06:44 1023 30.21 852 25.16 4.8 40.7 62 -1.8 28.7 0
06:45 1023 30.21 852 25.16 4.8 40.6 62 -1.9 28.6 0
06:46 1023 30.21 852 25.16 4.8 40.7 60 -2.2 28.1 0
06:47 1023 30.21 852 25.16 4.9 40.8 62 -1.7 28.9 0
06:48 1023 30.21 852 25.16 4.9 40.8 61 -1.9 28.6 0
06:49 1023 30.21 852 25.16 4.9 40.8 63 -1.6 29.2 0
06:50 1023 30.21 852 25.16 4.9 40.8 62 -1.8 28.8 0
06:51 1023 30.21 852 25.16 4.9 40.7 63 -1.7 29 0
06:52 1023 30.21 852 25.16 4.8 40.7 63 -1.6 29.1 0
06:53 1023 30.21 852 25.16 4.8 40.7 61 -2.1 28.3 0
06:54 1023 30.21 852 25.16 4.9 40.7 61 -2 28.5 0
06:55 1023 30.21 852 25.16 4.9 40.7 62 -1.8 28.7 0
06:56 1023 30.21 852 25.16 4.9 40.7 63 -1.6 29.1 0
06:57 1023 30.21 852 25.16 4.9 40.8 61 -2 28.5 0
06:58 1023 30.21 852 25.16 4.9 40.8 62 -1.8 28.8 0
06:59 1023 30.21 852 25.16 4.9 40.8 62 -1.7 29 0
07:00 1023 30.21 852 25.16 4.9 40.8 62 -1.7 28.9 0
07:01 1023 30.21 852 25.16 4.8 40.7 62 -1.7 28.9 0
07:02 1023 30.21 852 25.16 4.8 40.6 62 -1.9 28.6 0
07:03 1023 30.21 852 25.16 4.8 40.7 63 -1.7 28.9 0
07:04 1023 30.21 852 25.16 4.8 40.6 63 -1.5 29.2 0
07:05 1023 30.21 852 25.16 4.8 40.6 64 -1.5 29.3 0
07:06 1023 30.21 852 25.16 4.8 40.6 63 -1.7 29 0
07:07 1023 30.21 852 25.16 4.8 40.7 62 -1.7 28.9 0
07:08 1023 30.21 852 25.16 4.8 40.7 65 -1.2 29.8 0
07:09 1023 30.21 852 25.16 4.8 40.6 64 -1.5 29.3 0
07:10 1023 30.21 852 25.16 4.9 40.7 63 -1.6 29.2 0
07:11 1023 30.21 852 25.16 4.9 40.7 64 -1.4 29.5 0
07:12 1023 30.21 852 25.16 4.9 40.7 64 -1.4 29.5 0
07:13 1023 30.21 852 25.16 4.8 40.7 64 -1.5 29.3 0
07:14 1023 30.21 852 25.16 4.8 40.7 63 -1.7 29 0
07:15 1023 30.21 853 25.19 4.9 40.7 62 -1.8 28.8 0
07:16 1023 30.21 853 25.19 4.9 40.8 62 -1.8 28.7 0
07:17 1023 30.21 853 25.19 4.9 40.9 63 -1.6 29.2 0
07:18 1023 30.21 853 25.19 4.9 40.9 62 -1.6 29.1 0
07:19 1023 30.21 853 25.19 4.9 40.8 63 -1.5 29.3 0
07:20 1023 30.21 853 25.19 4.9 40.8 62 -1.8 28.7 0
07:21 1023 30.21 853 25.19 4.9 40.8 64 -1.4 29.5 0
07:22 1023 30.21 853 25.19 4.9 40.8 61 -1.9 28.5 0
07:23 1023 30.21 853 25.19 4.9 40.8 63 -1.6 29.1 0
07:24 1023 30.21 852 25.16 4.9 40.8 63 -1.6 29.1 0
07:25 1023 30.21 852 25.16 4.9 40.8 62 -1.8 28.8 0
07:26 1023 30.21 852 25.16 4.9 40.9 62 -1.8 28.7 0
07:27 1023 30.21 852 25.16 4.9 40.9 62 -1.8 28.7 0
07:28 1023 30.21 852 25.16 5 40.9 62 -1.7 29 0
07:29 1023 30.21 852 25.16 4.9 40.9 63 -1.5 29.3 0
07:30 1023 30.21 852 25.16 4.9 40.7 62 -1.7 28.9 0
07:31 1023 30.21 852 25.16 4.8 40.7 64 -1.4 29.4 0
07:32 1023 30.21 852 25.16 4.8 40.7 63 -1.7 29 0
07:33 1023 30.21 852 25.16 4.8 40.7 64 -1.5 29.3 0
07:34 1023 30.21 853 25.19 4.8 40.6 63 -1.7 29 0
07:35 1023 30.21 853 25.19 4.8 40.6 62 -1.8 28.8 0
07:36 1023 30.21 853 25.19 4.8 40.6 63 -1.5 29.2 0
07:37 1023 30.21 853 25.19 4.8 40.7 62 -1.7 28.9 0
07:38 1023 30.21 853 25.19 4.8 40.7 62 -1.7 28.9 0
07:39 1023 30.21 853 25.19 4.8 40.7 63 -1.6 29.1 0
07:40 1023 30.21 853 25.19 4.8 40.7 63 -1.7 29 0
07:41 1023 30.21 853 25.19 4.8 40.6 64 -1.4 29.5 0
07:42 1023 30.21 853 25.19 4.8 40.6 63 -1.6 29 0
07:43 1023 30.21 853 25.19 4.8 40.6 63 -1.7 29 0
07:44 1023 30.21 853 25.19 4.7 40.5 65 -1.4 29.5 0
07:45 1023 30.21 853 25.19 4.7 40.5 63 -1.8 28.7 0
07:46 1023 30.21 853 25.19 4.8 40.6 62 -1.9 28.6 0
07:47 1023 30.21 853 25.19 4.8 40.6 63 -1.8 28.8 0
07:48 1024 30.24 853 25.19 4.8 40.6 63 -1.7 28.9 0
07:49 1023 30.21 853 25.19 4.8 40.7 62 -1.8 28.7 0
07:50 1023 30.21 853 25.19 4.8 40.7 63 -1.6 29.1 0
07:51 1023 30.21 853 25.19 4.8 40.6 63 -1.7 28.9 0
07:52 1023 30.21 853 25.19 4.8 40.6 62 -1.9 28.6 0
07:53 1023 30.21 853 25.19 4.8 40.7 62 -1.9 28.5 0
07:54 1023 30.21 853 25.19 4.9 40.7 61 -2.1 28.2 0
07:55 1024 30.24 853 25.19 4.9 40.8 62 -1.7 29 0
07:56 1023 30.21 853 25.19 4.9 40.8 60 -2.1 28.2 0
07:57 1024 30.24 853 25.19 4.9 40.9 61 -1.9 28.6 0
07:58 1024 30.24 853 25.19 4.9 40.9 62 -1.8 28.7 0
07:59 1024 30.24 853 25.19 4.9 40.8 62 -1.8 28.8 0
08:00 1024 30.24 853 25.19 4.9 40.8 61 -2 28.5 0
08:01 1024 30.24 853 25.19 4.9 40.8 61 -2 28.5 0
08:02 1024 30.24 853 25.19 4.9 40.8 62 -1.7 28.9 0
08:03 1024 30.24 853 25.19 4.9 40.8 61 -2 28.5 0
08:04 1024 30.24 853 25.19 5 40.9 60 -2.2 28.1 0
08:05 1024 30.24 853 25.19 5 41.1 60 -2.1 28.3 0
08:06 1024 30.24 853 25.19 5.1 41.1 60 -2.1 28.3 0
08:07 1024 30.24 853 25.19 5.1 41.1 57 -2.8 27 0
08:08 1024 30.24 853 25.19 5.2 41.3 57 -2.6 27.3 0
08:09 1024 30.24 853 25.19 5.2 41.4 58 -2.3 27.9 0
08:10 1024 30.24 853 25.19 5.3 41.5 57 -2.5 27.5 0
08:11 1024 30.24 853 25.19 5.3 41.6 60 -1.9 28.5 0
08:12 1024 30.24 853 25.19 5.3 41.5 59 -2.1 28.3 0
08:13 1024 30.24 853 25.19 5.3 41.6 58 -2.3 27.9 0
08:14 1024 30.24 853 25.19 5.3 41.5 59 -2.1 28.2 0
08:15 1024 30.24 853 25.19 5.3 41.5 58 -2.3 27.9 0
08:16 1024 30.24 853 25.19 5.3 41.6 59 -2.2 28.1 0
08:17 1024 30.24 853 25.19 5.3 41.5 59 -2 28.5 0
08:18 1024 30.24 853 25.19 5.3 41.5 59 -2 28.4 0
08:19 1024 30.24 853 25.19 5.3 41.5 58 -2.2 28 0
08:20 1024 30.24 853 25.19 5.3 41.6 58 -2.3 27.8 0
08:21 1024 30.24 853 25.19 5.3 41.6 57 -2.6 27.4 0
08:22 1024 30.24 853 25.19 5.4 41.8 57 -2.5 27.5 0
08:23 1024 30.24 853 25.19 5.4 41.8 57 -2.5 27.5 0
08:24 1024 30.24 853 25.19 5.5 41.9 57 -2.3 27.8 0
08:25 1024 30.24 853 25.19 5.5 41.9 54 -3 26.6 0
08:26 1024 30.24 853 25.19 5.5 41.9 53 -3.2 26.2 0
08:27 1024 30.24 853 25.19 5.6 42.1 55 -2.7 27.2 0
08:28 1024 30.24 853 25.19 5.6 42.1 57 -2.3 27.8 0
08:29 1024 30.24 853 25.19 5.6 42.1 57 -2.3 27.9 0
08:30 1024 30.24 853 25.19 5.6 42 56 -2.6 27.3 0
08:31 1024 30.24 853 25.19 5.6 42 56 -2.5 27.5 0
08:32 1024 30.24 853 25.19 5.6 42 58 -2 28.4 0
08:33 1024 30.24 853 25.19 5.5 42 55 -2.8 26.9 0
08:34 1024 30.24 853 25.19 5.6 42 55 -2.7 27.2 0
08:35 1024 30.24 853 25.19 5.6 42 58 -2.1 28.3 0
08:36 1024 30.24 853 25.19 5.6 42 56 -2.6 27.4 0
08:37 1024 30.24 853 25.19 5.5 42 55 -2.9 26.8 0
08:38 1024 30.24 853 25.19 5.5 42 55 -2.9 26.9 0
08:39 1024 30.24 853 25.19 5.6 42 57 -2.3 27.9 0
08:40 1024 30.24 853 25.19 5.5 42 54 -3.1 26.4 0
08:41 1024 30.24 853 25.19 5.6 42.1 55 -2.8 27 0
08:42 1024 30.24 853 25.19 5.6 42.1 56 -2.4 27.6 0
08:43 1024 30.24 853 25.19 5.6 42.1 55 -2.7 27.2 0
08:44 1024 30.24 853 25.19 5.6 42.1 55 -2.8 27 0
08:45 1024 30.24 853 25.19 5.7 42.2 56 -2.5 27.5 0
08:46 1024 30.24 853 25.19 5.6 42.1 56 -2.4 27.8 0
08:47 1024 30.24 853 25.19 5.6 42.1 55 -2.8 27 0
08:48 1024 30.24 853 25.19 5.6 42.1 55 -2.8 27 0
08:49 1024 30.24 853 25.19 5.6 42.1 55 -2.6 27.3 0
08:50 1024 30.24 853 25.19 5.6 42.1 56 -2.5 27.6 0
08:51 1024 30.24 853 25.19 5.6 42.1 57 -2.2 28.1 0
08:52 1024 30.24 853 25.19 5.6 42.1 56 -2.4 27.7 0
08:53 1024 30.24 853 25.19 5.6 42.1 57 -2.3 27.8 0
08:54 1024 30.24 853 25.19 5.6 42.1 56 -2.4 27.7 0
08:55 1024 30.24 853 25.19 5.7 42.2 56 -2.4 27.7 0
08:56 1024 30.24 853 25.19 5.6 42.1 58 -1.9 28.6 0
08:57 1024 30.24 853 25.19 5.6 42.1 57 -2.2 28 0
08:58 1024 30.24 853 25.19 5.6 42.1 56 -2.4 27.7 0
08:59 1024 30.24 853 25.19 5.6 42.2 56 -2.4 27.7 0
09:00 1024 30.24 853 25.19 5.7 42.2 58 -2 28.4 0
09:01 1024 30.24 853 25.19 5.6 42.1 57 -2.1 28.1 0
09:02 1024 30.24 853 25.19 5.7 42.2 55 -2.7 27.2 0
09:03 1024 30.24 853 25.19 5.7 42.3 55 -2.6 27.4 0
09:04 1024 30.24 853 25.19 5.8 42.4 54 -2.7 27.1 0
09:05 1024 30.24 853 25.19 5.8 42.5 54 -2.7 27.1 0
09:06 1024 30.24 853 25.19 5.9 42.6 54 -2.8 27 0
09:07 1024 30.24 853 25.19 5.9 42.6 54 -2.7 27.1 0
09:08 1024 30.24 853 25.19 5.8 42.5 56 -2.2 28 0
09:09 1024 30.24 853 25.19 5.9 42.6 54 -2.7 27.2 0
09:10 1024 30.24 853 25.19 5.9 42.5 55 -2.4 27.7 0
09:11 1024 30.24 853 25.19 5.8 42.5 57 -2 28.3 0
09:12 1024 30.24 853 25.19 5.8 42.5 54 -2.7 27.2 0
09:13 1024 30.24 853 25.19 5.8 42.5 56 -2.3 27.9 0
09:14 1024 30.24 853 25.19 5.8 42.5 54 -2.7 27.2 0
09:15 1024 30.24 853 25.19 5.9 42.5 55 -2.4 27.7 0
09:16 1024 30.24 853 25.19 5.8 42.5 54 -2.6 27.2 0
09:17 1024 30.24 853 25.19 5.9 42.6 55 -2.4 27.7 0
09:18 1024 30.24 853 25.19 5.8 42.5 55 -2.4 27.6 0
09:19 1024 30.24 853 25.19 5.8 42.5 55 -2.5 27.5 0
09:20 1023 30.21 853 25.19 5.8 42.5 56 -2.3 27.9 0
09:21 1023 30.21 853 25.19 5.8 42.4 55 -2.4 27.6 0
09:22 1023 30.21 853 25.19 5.8 42.5 56 -2.3 27.9 0
09:23 1023 30.21 853 25.19 5.8 42.4 56 -2.4 27.7 0
09:24 1024 30.24 853 25.19 5.8 42.4 57 -2.2 28.1 0
09:25 1023 30.21 853 25.19 5.7 42.3 56 -2.4 27.6 0
09:26 1024 30.24 853 25.19 5.8 42.4 56 -2.3 27.8 0
09:27 1024 30.24 853 25.19 5.7 42.3 58 -1.9 28.6 0
09:28 1023 30.21 853 25.19 5.7 42.2 58 -2 28.4 0
09:29 1024 30.24 853 25.19 5.7 42.3 55 -2.6 27.3 0
09:30 1024 30.24 853 25.19 5.8 42.4 54 -2.8 27 0
09:31 1024 30.24 853 25.19 5.8 42.5 55 -2.6 27.2 0
09:32 1024 30.24 853 25.19 5.8 42.5 54 -2.8 27 0
09:33 1024 30.24 853 25.19 5.8 42.5 54 -2.7 27.2 0
09:34 1024 30.24 853 25.19 5.8 42.5 54 -2.7 27.2 0
09:35 1024 30.24 853 25.19 5.9 42.5 55 -2.5 27.5 0
09:36 1024 30.24 853 25.19 5.8 42.5 55 -2.5 27.6 0
09:37 1024 30.24 853 25.19 5.8 42.5 55 -2.5 27.6 0
09:38 1024 30.24 853 25.19 5.8 42.5 56 -2.2 28.1 0
09:39 1024 30.24 853 25.19 5.8 42.5 57 -2.1 28.1 0
09:40 1024 30.24 853 25.19 5.8 42.4 53 -2.9 26.7 0
09:41 1024 30.24 853 25.19 5.9 42.5 56 -2.3 27.9 0
09:42 1024 30.24 853 25.19 5.9 42.6 56 -2.3 27.9 0
09:43 1024 30.24 853 25.19 5.9 42.5 56 -2.3 27.8 0
09:44 1024 30.24 853 25.19 5.9 42.6 53 -3 26.5 0
09:45 1024 30.24 853 25.19 6 42.7 52 -3.2 26.2 0
09:46 1024 30.24 853 25.19 6 42.7 55 -2.3 27.9 0
09:47 1024 30.24 853 25.19 5.9 42.6 54 -2.7 27.1 0
09:48 1024 30.24 853 25.19 5.9 42.6 53 -2.8 26.9 0
09:49 1024 30.24 853 25.19 5.9 42.7 54 -2.6 27.4 0
09:50 1024 30.24 853 25.19 5.9 42.6 55 -2.6 27.4 0
09:51 1024 30.24 853 25.19 5.9 42.6 53 -3 26.6 0
09:52 1024 30.24 853 25.19 5.9 42.6 54 -2.6 27.3 0
09:53 1024 30.24 853 25.19 5.9 42.6 53 -3 26.6 0
09:54 1024 30.24 853 25.19 5.9 42.7 55 -2.5 27.5 0
09:55 1024 30.24 853 25.19 5.9 42.6 55 -2.5 27.5 0
09:56 1024 30.24 853 25.19 5.8 42.5 56 -2.2 28 0
09:57 1024 30.24 853 25.19 5.8 42.5 55 -2.5 27.4 0
09:58 1024 30.24 853 25.19 5.9 42.5 54 -2.7 27.2 0
09:59 1024 30.24 853 25.19 5.9 42.6 52 -3.1 26.4 0
10:00 1024 30.24 853 25.19 5.9 42.7 54 -2.7 27.2 0
10:01 1024 30.24 853 25.19 5.9 42.6 53 -3 26.6 0
10:02 1024 30.24 853 25.19 5.9 42.6 54 -2.7 27.1 0
10:03 1024 30.24 853 25.19 5.9 42.7 54 -2.5 27.4 0
10:04 1024 30.24 853 25.19 5.9 42.6 55 -2.3 27.9 0
10:05 1024 30.24 853 25.19 6 42.7 56 -2.2 28 0
10:06 1024 30.24 853 25.19 5.9 42.6 53 -2.8 26.9 0
10:07 1024 30.24 853 25.19 5.9 42.7 53 -2.9 26.8 0
10:08 1024 30.24 853 25.19 6 42.7 53 -2.8 27 0
10:09 1024 30.24 853 25.19 6 42.7 54 -2.7 27.1 0
10:10 1024 30.24 853 25.19 6 42.8 52 -3 26.7 0
10:11 1024 30.24 853 25.19 6 42.8 54 -2.5 27.5 0
10:12 1024 30.24 853 25.19 6 42.7 54 -2.6 27.2 0
10:13 1024 30.24 853 25.19 6 42.7 55 -2.5 27.5 0
10:14 1024 30.24 853 25.19 5.9 42.7 56 -2.1 28.2 0
10:15 1024 30.24 853 25.19 5.9 42.6 56 -2.2 28.1 0
10:16 1024 30.24 853 25.19 5.8 42.5 57 -1.9 28.5 0
10:17 1024 30.24 853 25.19 5.8 42.5 54 -2.6 27.3 0
10:18 1024 30.24 853 25.19 5.9 42.6 55 -2.4 27.7 0
10:19 1024 30.24 853 25.19 5.9 42.6 57 -2 28.5 0
10:20 1024 30.24 853 25.19 5.9 42.6 56 -2.2 28 0
10:21 1024 30.24 853 25.19 5.9 42.6 53 -2.9 26.8 0
10:22 1024 30.24 853 25.19 6 42.7 54 -2.7 27.2 0
10:23 1024 30.24 853 25.19 6 42.7 54 -2.6 27.3 0
10:24 1024 30.24 853 25.19 5.9 42.7 55 -2.4 27.7 0
10:25 1024 30.24 853 25.19 6 42.7 56 -2.1 28.1 0
10:26 1024 30.24 853 25.19 5.9 42.6 57 -2 28.4 0
10:27 1024 30.24 853 25.19 5.8 42.5 56 -2.1 28.1 0
10:28 1024 30.24 853 25.19 5.8 42.4 56 -2.2 28.1 0
10:29 1024 30.24 853 25.19 5.8 42.4 58 -1.9 28.5 0
10:30 1024 30.24 853 25.19 5.8 42.4 56 -2.3 27.8 0
10:31 1024 30.24 853 25.19 5.8 42.4 58 -1.9 28.5 0
10:32 1024 30.24 853 25.19 5.8 42.4 56 -2.3 27.9 0
10:33 1024 30.24 853 25.19 5.8 42.5 57 -2 28.3 0
10:34 1024 30.24 853 25.19 5.8 42.5 56 -2.4 27.7 0
10:35 1024 30.24 853 25.19 5.8 42.5 58 -1.8 28.7 0
10:36 1024 30.24 853 25.19 5.8 42.4 55 -2.6 27.4 0
10:37 1024 30.24 853 25.19 5.8 42.4 56 -2.3 27.8 0
10:38 1024 30.24 853 25.19 5.9 42.6 55 -2.5 27.6 0
10:39 1024 30.24 853 25.19 5.9 42.6 56 -2.2 28.1 0
10:40 1024 30.24 853 25.19 5.9 42.6 55 -2.5 27.4 0
10:41 1024 30.24 853 25.19 5.9 42.7 54 -2.6 27.4 0
10:42 1024 30.24 853 25.19 6 42.7 57 -2 28.5 0
10:43 1024 30.24 853 25.19 5.9 42.6 58 -1.7 29 0
10:44 1024 30.24 853 25.19 5.9 42.6 55 -2.4 27.7 0
10:45 1024 30.24 853 25.19 5.9 42.6 58 -1.6 29.1 0
10:46 1024 30.24 853 25.19 5.9 42.6 55 -2.3 27.8 0
10:47 1024 30.24 853 25.19 6 42.7 56 -2.1 28.2 0
10:48 1024 30.24 853 25.19 6 42.7 55 -2.3 27.8 0
10:49 1024 30.24 853 25.19 6 42.8 57 -1.8 28.8 0
10:50 1024 30.24 853 25.19 6 42.7 55 -2.4 27.6 0
10:51 1024 30.24 853 25.19 6 42.8 55 -2.4 27.7 0
10:52 1024 30.24 853 25.19 6 42.8 56 -2 28.3 0
10:53 1024 30.24 853 25.19 6 42.8 57 -1.8 28.7 0
10:54 1024 30.24 853 25.19 6 42.8 56 -2 28.4 0
10:55 1024 30.24 853 25.19 6 42.7 57 -1.8 28.7 0
10:56 1024 30.24 853 25.19 6 42.8 56 -2.1 28.3 0
10:57 1024 30.24 853 25.19 6 42.8 58 -1.8 28.8 0
10:58 1024 30.24 853 25.19 6 42.8 55 -2.2 28 0
10:59 1024 30.24 853 25.19 6 42.9 56 -2.1 28.3 0
11:00 1024 30.24 853 25.19 6.1 42.9 57 -1.7 28.9 0
11:01 1024 30.24 853 25.19 6.1 43 57 -1.8 28.8 0
11:02 1024 30.24 853 25.19 6.1 43 56 -2.1 28.2 0
11:03 1024 30.24 853 25.19 6.1 43.1 56 -2 28.4 0
11:04 1024 30.24 853 25.19 6.1 43 58 -1.4 29.4 0
11:05 1024 30.24 853 25.19 6.1 43 55 -2.2 28.1 0
11:06 1024 30.24 853 25.19 6.2 43.1 55 -2.2 28.1 0
11:07 1024 30.24 853 25.19 6.1 43 56 -1.9 28.6 0
11:08 1024 30.24 853 25.19 6.1 43.1 56 -1.8 28.7 0
11:09 1024 30.24 853 25.19 6.1 43.1 57 -1.8 28.8 0
11:10 1024 30.24 853 25.19 6.1 43.1 56 -2 28.5 0
11:11 1024 30.24 853 25.19 6.1 43 54 -2.4 27.6 0
11:12 1024 30.24 853 25.19 6.1 43 56 -2 28.3 0
11:13 1024 30.24 853 25.19 6.1 43 57 -1.8 28.7 0
11:14 1024 30.24 853 25.19 6.1 42.9 58 -1.7 29 0
11:15 1024 30.24 853 25.19 6.1 42.9 56 -2.1 28.2 0
11:16 1024 30.24 853 25.19 6.1 43 57 -1.8 28.8 0
11:17 1024 30.24 853 25.19 6.1 43 59 -1.2 29.8 0
11:18 1024 30.24 853 25.19 6.1 42.9 58 -1.6 29.1 0
11:19 1024 30.24 853 25.19 6 42.9 58 -1.5 29.3 0
11:20 1024 30.24 853 25.19 6 42.9 58 -1.6 29.1 0
11:21 1024 30.24 853 25.19 6.1 42.9 56 -2.1 28.1 0
11:22 1024 30.24 853 25.19 6.1 43 58 -1.6 29.2 0
11:23 1024 30.24 853 25.19 6.1 43 58 -1.6 29.1 0
11:24 1024 30.24 853 25.19 6.1 43 59 -1.4 29.5 0
11:25 1024 30.24 853 25.19 6.1 43 56 -2 28.5 0
11:26 1024 30.24 853 25.19 6.1 43 57 -1.7 29 0
11:27 1024 30.24 853 25.19 6.2 43.1 57 -1.7 28.9 0
11:28 1024 30.24 853 25.19 6.2 43.1 57 -1.6 29 0
11:29 1024 30.24 853 25.19 6.2 43.1 58 -1.5 29.3 0
11:30 1024 30.24 853 25.19 6.2 43.1 59 -1.2 29.8 0
11:31 1024 30.24 853 25.19 6.2 43.1 57 -1.7 29 0
11:32 1024 30.24 853 25.19 6.2 43.2 58 -1.4 29.4 0
11:33 1024 30.24 853 25.19 6.2 43.1 56 -1.9 28.7 0
11:34 1024 30.24 853 25.19 6.2 43.2 57 -1.7 28.9 0
11:35 1024 30.24 853 25.19 6.2 43.2 57 -1.6 29.2 0
11:36 1024 30.24 853 25.19 6.2 43.2 57 -1.6 29.2 0
11:37 1024 30.24 853 25.19 6.3 43.3 59 -1.2 29.9 0
11:38 1024 30.24 853 25.19 6.2 43.2 57 -1.7 28.9 0
11:39 1024 30.24 853 25.19 6.3 43.3 57 -1.6 29.1 0
11:40 1024 30.24 853 25.19 6.3 43.4 59 -1.1 30 0
11:41 1024 30.24 853 25.19 6.4 43.5 55 -1.9 28.5 0
11:42 1024 30.24 853 25.19 6.4 43.6 56 -1.7 29 0
11:43 1024 30.24 853 25.19 6.5 43.6 55 -1.9 28.5 0
11:44 1024 30.24 853 25.19 6.5 43.8 56 -1.7 29 0
11:45 1024 30.24 853 25.19 6.5 43.7 55 -2 28.5 0
11:46 1024 30.24 853 25.19 6.5 43.8 57 -1.4 29.5 0
11:47 1024 30.24 853 25.19 6.5 43.7 56 -1.7 29 0
11:48 1024 30.24 853 25.19 6.5 43.7 56 -1.7 29 0
11:49 1024 30.24 853 25.19 6.5 43.7 57 -1.5 29.3 0
11:50 1024 30.24 853 25.19 6.5 43.7 58 -1.1 30 0
11:51 1024 30.24 853 25.19 6.5 43.7 57 -1.3 29.6 0
11:52 1024 30.24 853 25.19 6.5 43.6 58 -1.2 29.9 0
11:53 1024 30.24 853 25.19 6.5 43.6 57 -1.5 29.3 0
11:54 1024 30.24 853 25.19 6.4 43.6 58 -1.3 29.7 0
11:55 1024 30.24 853 25.19 6.4 43.5 60 -0.7 30.7 0
11:56 1024 30.24 853 25.19 6.4 43.5 58 -1.3 29.6 0
11:57 1024 30.24 853 25.19 6.4 43.5 56 -1.7 28.9 0
11:58 1024 30.24 853 25.19 6.4 43.5 57 -1.5 29.3 0
11:59 1024 30.24 853 25.19 6.4 43.6 57 -1.5 29.4 0
12:00 1024 30.24 853 25.19 6.4 43.6 59 -0.9 30.3 0
12:01 1024 30.24 853 25.19 6.4 43.6 56 -1.6 29.1 0
12:02 1024 30.24 853 25.19 6.4 43.6 57 -1.5 29.4 0
12:03 1024 30.24 853 25.19 6.4 43.6 59 -0.9 30.3 0
12:04 1024 30.24 853 25.19 6.5 43.6 58 -1.1 30.1 0
12:05 1024 30.24 853 25.19 6.4 43.6 59 -1 30.2 0
12:06 1024 30.24 853 25.19 6.4 43.6 55 -1.9 28.5 0
12:07 1024 30.24 853 25.19 6.5 43.7 57 -1.4 29.4 0
12:08 1024 30.24 853 25.19 6.5 43.8 57 -1.4 29.6 0
12:09 1024 30.24 853 25.19 6.6 43.8 58 -1 30.2 0
12:10 1024 30.24 853 25.19 6.5 43.7 55 -1.8 28.7 0
12:11 1024 30.24 853 25.19 6.6 43.8 54 -2.2 28.1 0
12:12 1024 30.24 853 25.19 6.6 44 54 -2 28.3 0
12:13 1024 30.24 853 25.19 6.7 44 54 -2 28.4 0
12:14 1024 30.24 853 25.19 6.7 44.1 56 -1.4 29.4 0
12:15 1024 30.24 853 25.19 6.7 44.1 53 -2.1 28.2 0
12:16 1024 30.24 853 25.19 6.8 44.3 55 -1.6 29.2 0
12:17 1024 30.24 853 25.19 6.9 44.4 54 -1.7 29 0
12:18 1024 30.24 853 25.19 6.9 44.5 52 -2.3 27.9 0
12:19 1024 30.24 853 25.19 7 44.6 51 -2.5 27.5 0
12:20 1024 30.24 853 25.19 7 44.7 53 -1.8 28.7 0
12:21 1024 30.24 853 25.19 7.1 44.7 55 -1.4 29.5 0
12:22 1024 30.24 853 25.19 7.1 44.8 54 -1.7 29 0
12:23 1024 30.24 853 25.19 7.2 44.9 52 -1.9 28.5 0
12:24 1024 30.24 853 25.19 7.2 44.9 53 -1.7 29 0
12:25 1024 30.24 853 25.19 7.2 45 54 -1.4 29.6 0
12:26 1024 30.24 853 25.19 7.3 45.2 52 -1.9 28.5 0
12:27 1024 30.24 853 25.19 7.4 45.3 53 -1.5 29.3 0
12:28 1024 30.24 853 25.19 7.5 45.5 52 -1.8 28.8 0
12:29 1024 30.24 853 25.19 7.6 45.6 53 -1.3 29.6 0
12:30 1024 30.24 853 25.19 7.6 45.7 52 -1.7 28.9 0
12:31 1024 30.24 853 25.19 7.6 45.7 51 -1.7 28.9 0
12:32 1024 30.24 853 25.19 7.6 45.7 51 -2 28.4 0
12:33 1024 30.24 853 25.19 7.6 45.6 51 -2 28.4 0
12:34 1024 30.24 853 25.19 7.5 45.5 52 -1.8 28.8 0
12:35 1024 30.24 853 25.19 7.5 45.5 51 -2.1 28.3 0
12:36 1024 30.24 853 25.19 7.5 45.5 51 -1.9 28.5 0
12:37 1024 30.24 853 25.19 7.6 45.6 55 -1 30.3 0
12:38 1024 30.24 853 25.19 7.6 45.8 50 -2.1 28.2 0
12:39 1024 30.24 853 25.19 7.7 45.9 52 -1.4 29.4 0
12:40 1024 30.24 853 25.19 7.8 46 50 -1.9 28.6 0
12:41 1024 30.24 853 25.19 7.8 46.1 51 -1.6 29.2 0
12:42 1024 30.24 853 25.19 7.9 46.1 52 -1.4 29.4 0
12:43 1024 30.24 853 25.19 7.9 46.1 52 -1.3 29.6 0
12:44 1024 30.24 853 25.19 7.8 46.1 52 -1.3 29.6 0
12:45 1024 30.24 853 25.19 7.8 46.1 52 -1.4 29.4 0
12:46 1024 30.24 853 25.19 7.8 46 49 -2.1 28.2 0
12:47 1024 30.24 853 25.19 7.8 46 50 -2 28.4 0
12:48 1024 30.24 853 25.19 7.7 45.9 49 -2.4 27.7 0
12:49 1024 30.24 853 25.19 7.7 45.9 50 -2.1 28.2 0
12:50 1024 30.24 853 25.19 7.7 45.9 49 -2.2 28 0
12:51 1024 30.24 853 25.19 7.7 45.8 51 -1.7 28.9 0
12:52 1024 30.24 853 25.19 7.7 45.8 48 -2.7 27.2 0
12:53 1024 30.24 853 25.19 7.7 45.9 51 -1.8 28.8 0
12:54 1024 30.24 853 25.19 7.7 45.9 50 -2.1 28.1 0
12:55 1024 30.24 853 25.19 7.7 45.8 51 -1.9 28.6 0
12:56 1024 30.24 853 25.19 7.6 45.7 49 -2.4 27.7 0
12:57 1024 30.24 853 25.19 7.6 45.7 49 -2.3 27.8 0
12:58 1024 30.24 853 25.19 7.6 45.6 50 -2.1 28.2 0
12:59 1024 30.24 853 25.19 7.5 45.6 50 -2.1 28.2 0
13:00 1024 30.24 853 25.19 7.5 45.5 52 -1.8 28.8 0
13:01 1024 30.24 853 25.19 7.5 45.5 50 -2.2 28.1 0
13:02 1024 30.24 853 25.19 7.5 45.5 49 -2.4 27.6 0
13:03 1024 30.24 853 25.19 7.5 45.4 51 -2.1 28.2 0
13:04 1024 30.24 853 25.19 7.4 45.4 51 -2 28.3 0
13:05 1024 30.24 853 25.19 7.4 45.3 52 -1.7 28.9 0
13:06 1024 30.24 853 25.19 7.4 45.4 53 -1.5 29.3 0
13:07 1024 30.24 853 25.19 7.5 45.4 51 -2 28.4 0
13:08 1024 30.24 853 25.19 7.5 45.4 50 -2.3 27.8 0
13:09 1024 30.24 853 25.19 7.5 45.5 51 -1.9 28.6 0
13:10 1024 30.24 853 25.19 7.5 45.6 52 -1.6 29.1 0
13:11 1024 30.24 853 25.19 7.6 45.7 50 -2 28.3 0
13:12 1024 30.24 853 25.19 7.7 45.8 52 -1.5 29.3 0
13:13 1024 30.24 853 25.19 7.7 45.8 49 -2.3 27.9 0
13:14 1024 30.24 853 25.19 7.7 45.9 51 -1.8 28.8 0
13:15 1024 30.24 853 25.19 7.7 45.9 50 -2.1 28.3 0
13:16 1024 30.24 853 25.19 7.8 46 52 -1.6 29.2 0
13:17 1024 30.24 853 25.19 7.8 46 48 -2.5 27.5 0
13:18 1024 30.24 853 25.19 7.8 46 48 -2.6 27.3 0
13:19 1024 30.24 853 25.19 7.7 45.9 48 -2.5 27.4 0
13:20 1024 30.24 853 25.19 7.8 46 48 -2.6 27.4 0
13:21 1024 30.24 853 25.19 7.8 46 49 -2.3 27.9 0
13:22 1024 30.24 853 25.19 7.8 46.1 49 -2.1 28.2 0
13:23 1024 30.24 853 25.19 7.8 46.1 50 -1.9 28.5 0
13:24 1024 30.24 853 25.19 7.9 46.2 51 -1.7 29 0
13:25 1024 30.24 853 25.19 7.9 46.2 49 -2.2 28 0
13:26 1024 30.24 853 25.19 7.9 46.3 51 -1.7 29 0
13:27 1024 30.24 853 25.19 7.9 46.3 48 -2.3 27.9 0
13:28 1024 30.24 853 25.19 7.9 46.2 50 -1.9 28.7 0
13:29 1024 30.24 853 25.19 7.8 46.1 49 -2.2 28 0
13:30 1024 30.24 853 25.19 7.8 46.1 53 -1.1 30 0
13:31 1024 30.24 853 25.19 7.8 46 52 -1.5 29.4 0
13:32 1024 30.24 853 25.19 7.7 45.9 51 -1.6 29.1 0
13:33 1024 30.24 853 25.19 7.7 45.9 53 -1.3 29.6 0
13:34 1024 30.24 853 25.19 7.8 46 47 -2.7 27.2 0
13:35 1024 30.24 853 25.19 7.7 45.9 50 -2 28.3 0
13:36 1024 30.24 853 25.19 7.8 46 50 -1.9 28.5 0
13:37 1024 30.24 853 25.19 7.7 45.9 49 -2.3 27.8 0
13:38 1024 30.24 853 25.19 7.8 46 48 -2.4 27.6 0
13:39 1024 30.24 853 25.19 7.8 46.1 48 -2.6 27.4 0
13:40 1024 30.24 853 25.19 7.8 46.1 48 -2.4 27.8 0
13:41 1024 30.24 853 25.19 7.9 46.1 49 -2.3 27.9 0
13:42 1024 30.24 853 25.19 7.9 46.2 51 -1.6 29.1 0
13:43 1024 30.24 853 25.19 7.9 46.3 49 -2.1 28.2 0
13:44 1024 30.24 853 25.19 8 46.4 49 -2.1 28.1 0
13:45 1024 30.24 853 25.19 8 46.4 48 -2.2 28.1 0
13:46 1024 30.24 853 25.19 8.1 46.6 47 -2.5 27.4 0
13:47 1024 30.24 853 25.19 8.1 46.6 47 -2.4 27.8 0
13:48 1024 30.24 853 25.19 8.2 46.7 48 -2.2 28.1 0
13:49 1024 30.24 853 25.19 8.3 46.9 46 -2.5 27.5 0
13:50 1024 30.24 853 25.19 8.3 47 46 -2.5 27.4 0
13:51 1024 30.24 853 25.19 8.3 47 47 -2.2 28.1 0
13:52 1024 30.24 853 25.19 8.3 47 46 -2.6 27.4 0
13:53 1024 30.24 853 25.19 8.3 47 48 -1.9 28.6 0
13:54 1024 30.24 853 25.19 8.4 47.1 48 -1.9 28.5 0
13:55 1024 30.24 853 25.19 8.4 47.1 47 -2.2 28 0
13:56 1024 30.24 853 25.19 8.5 47.2 46 -2.4 27.8 0
13:57 1024 30.24 853 25.19 8.5 47.2 47 -2.2 28.1 0
13:58 1024 30.24 853 25.19 8.5 47.2 45 -2.8 27 0
13:59 1024 30.24 853 25.19 8.5 47.2 48 -1.9 28.6 0
14:00 1024 30.24 853 25.19 8.5 47.2 48 -1.9 28.5 0
14:01 1024 30.24 853 25.19 8.5 47.3 45 -2.7 27.2 0
14:02 1024 30.24 853 25.19 8.5 47.2 47 -2.3 27.9 0
14:03 1024 30.24 853 25.19 8.4 47.2 48 -2 28.4 0
14:04 1024 30.24 853 25.19 8.4 47.2 52 -0.8 30.5 0
14:05 1024 30.24 853 25.19 8.5 47.3 47 -2 28.3 0
14:06 1024 30.24 853 25.19 8.5 47.4 49 -1.5 29.2 0
14:07 1024 30.24 853 25.19 8.6 47.4 49 -1.6 29.2 0
14:08 1024 30.24 853 25.19 8.5 47.3 49 -1.5 29.3 0
14:09 1024 30.24 853 25.19 8.5 47.3 45 -2.6 27.4 0
14:10 1024 30.24 853 25.19 8.5 47.2 49 -1.7 28.9 0
14:11 1024 30.24 853 25.19 8.4 47.1 47 -2.2 28.1 0
14:12 1024 30.24 853 25.19 8.4 47.2 47 -2.2 28 0
14:13 1024 30.24 853 25.19 8.5 47.2 49 -1.5 29.2 0
14:14 1024 30.24 853 25.19 8.5 47.2 48 -2 28.5 0
14:15 1024 30.24 853 25.19 8.4 47.2 47 -2.1 28.2 0
14:16 1024 30.24 853 25.19 8.4 47.2 46 -2.5 27.6 0
14:17 1024 30.24 853 25.19 8.4 47.2 47 -2.1 28.2 0
14:18 1024 30.24 853 25.19 8.5 47.3 49 -1.5 29.3 0
14:19 1024 30.24 853 25.19 8.5 47.3 47 -2.2 28.1 0
14:20 1024 30.24 853 25.19 8.5 47.4 47 -2.1 28.2 0
14:21 1024 30.24 853 25.19 8.6 47.4 49 -1.7 29 0
14:22 1024 30.24 853 25.19 8.6 47.5 49 -1.6 29.2 0
14:23 1024 30.24 853 25.19 8.7 47.6 49 -1.3 29.7 0
14:24 1024 30.24 853 25.19 8.7 47.6 45 -2.5 27.5 0
14:25 1024 30.24 853 25.19 8.7 47.7 46 -2.4 27.8 0
14:26 1024 30.24 853 25.19 8.7 47.6 46 -2.2 28 0
14:27 1024 30.24 853 25.19 8.7 47.7 45 -2.4 27.7 0
14:28 1024 30.24 853 25.19 8.7 47.7 46 -2.4 27.7 0
14:29 1024 30.24 853 25.19 8.7 47.7 48 -1.6 29.2 0
14:30 1024 30.24 853 25.19 8.8 47.8 49 -1.2 29.8 0
14:31 1024 30.24 853 25.19 8.7 47.7 48 -1.6 29.2 0
14:32 1024 30.24 853 25.19 8.8 47.8 50 -1.2 29.9 0
14:33 1024 30.24 853 25.19 8.8 47.8 48 -1.6 29.1 0
14:34 1024 30.24 853 25.19 8.8 47.8 46 -2.2 28 0
14:35 1024 30.24 853 25.19 8.8 47.8 46 -2.1 28.2 0
14:36 1024 30.24 853 25.19 8.7 47.7 47 -1.9 28.5 0
14:37 1024 30.24 853 25.19 8.7 47.6 48 -1.7 28.9 0
14:38 1024 30.24 853 25.19 8.7 47.7 47 -1.9 28.5 0
14:39 1024 30.24 853 25.19 8.7 47.7 45 -2.5 27.6 0
14:40 1024 30.24 853 25.19 8.7 47.7 45 -2.5 27.5 0
14:41 1024 30.24 853 25.19 8.7 47.6 45 -2.6 27.4 0
14:42 1024 30.24 853 25.19 8.7 47.7 45 -2.5 27.6 0
14:43 1024 30.24 853 25.19 8.7 47.6 45 -2.6 27.3 0
14:44 1024 30.24 853 25.19 8.7 47.6 46 -2.1 28.1 0
14:45 1024 30.24 853 25.19 8.7 47.6 47 -1.9 28.5 0
14:46 1024 30.24 853 25.19 8.7 47.7 47 -2 28.4 0
14:47 1024 30.24 853 25.19 8.8 47.8 49 -1.4 29.5 0
14:48 1024 30.24 853 25.19 8.8 47.9 49 -1.4 29.5 0
14:49 1024 30.24 853 25.19 8.9 48 48 -1.5 29.3 0
14:50 1024 30.24 853 25.19 9 48.1 46 -2 28.5 0
14:51 1024 30.24 853 25.19 9.1 48.3 47 -1.7 28.9 0
14:52 1024 30.24 853 25.19 9.1 48.3 46 -1.9 28.5 0
14:53 1024 30.24 853 25.19 9 48.2 45 -2.1 28.2 0
14:54 1024 30.24 853 25.19 9 48.2 45 -2.2 28.1 0
14:55 1024 30.24 853 25.19 9.1 48.3 48 -1.4 29.5 0
14:56 1024 30.24 853 25.19 9.1 48.4 46 -1.8 28.7 0
14:57 1024 30.24 853 25.19 9.2 48.5 46 -1.7 28.9 0
14:58 1024 30.24 853 25.19 9.2 48.5 46 -1.7 28.9 0
14:59 1024 30.24 853 25.19 9.2 48.6 44 -2.5 27.4 0
15:00 1024 30.24 853 25.19 9.2 48.6 44 -2.4 27.7 0
15:01 1024 30.24 853 25.19 9.2 48.5 48 -1.3 29.7 0
15:02 1024 30.24 853 25.19 9.2 48.6 46 -1.7 28.9 0
15:03 1024 30.24 853 25.19 9.2 48.6 44 -2.3 27.8 0
15:04 1024 30.24 853 25.19 9.2 48.5 44 -2.3 27.8 0
15:05 1024 30.24 853 25.19 9.1 48.4 45 -2.2 28.1 0
15:06 1024 30.24 853 25.19 9.1 48.4 51 -0.6 31 0
15:07 1024 30.24 853 25.19 9.2 48.5 49 -0.9 30.5 0
15:08 1024 30.24 853 25.19 9.2 48.5 46 -1.7 28.9 0
15:09 1024 30.24 853 25.19 9.2 48.6 47 -1.6 29.2 0
15:10 1024 30.24 853 25.19 9.1 48.4 46 -2 28.4 0
15:11 1024 30.24 853 25.19 9 48.2 46 -2 28.4 0
15:12 1024 30.24 853 25.19 9 48.1 45 -2.2 28 0
15:13 1024 30.24 853 25.19 9 48.1 47 -1.8 28.8 0
15:14 1024 30.24 853 25.19 8.9 48 46 -2.2 28 0
15:15 1024 30.24 853 25.19 8.9 48 47 -1.7 28.9 0
15:16 1024 30.24 853 25.19 8.9 48 50 -1 30.2 0
15:17 1024 30.24 853 25.19 9 48.1 50 -0.9 30.5 0
15:18 1024 30.24 853 25.19 9 48.1 47 -1.8 28.8 0
15:19 1024 30.24 853 25.19 9 48.3 48 -1.3 29.7 0
15:20 1024 30.24 853 25.19 9 48.3 49 -1 30.2 0
15:21 1024 30.24 853 25.19 9 48.2 46 -1.9 28.6 0
15:22 1024 30.24 853 25.19 9 48.3 46 -1.9 28.6 0
15:23 1024 30.24 853 25.19 9 48.1 45 -2.2 28.1 0
15:24 1024 30.24 853 25.19 9 48.1 46 -1.9 28.6 0
15:25 1024 30.24 853 25.19 8.9 48.1 48 -1.4 29.5 0
15:26 1024 30.24 853 25.19 9 48.1 48 -1.4 29.4 0
15:27 1024 30.24 853 25.19 9 48.2 44 -2.7 27.1 0
15:28 1024 30.24 853 25.19 9 48.2 47 -1.8 28.8 0
15:29 1024 30.24 853 25.19 9 48.2 47 -1.6 29.2 0
15:30 1024 30.24 853 25.19 9.1 48.3 45 -2.3 27.8 0
15:31 1024 30.24 853 25.19 9.1 48.3 46 -1.9 28.6 0
15:32 1024 30.24 853 25.19 9 48.3 45 -2.2 28.1 0
15:33 1024 30.24 853 25.19 9 48.2 44 -2.5 27.6 0
15:34 1024 30.24 853 25.19 9 48.2 43 -2.8 27 0
15:35 1024 30.24 853 25.19 9 48.1 44 -2.5 27.5 0
15:36 1024 30.24 853 25.19 9 48.2 46 -1.9 28.6 0
15:37 1024 30.24 853 25.19 9 48.2 45 -2.4 27.8 0
15:38 1024 30.24 853 25.19 9 48.2 46 -2.1 28.3 0
15:39 1024 30.24 853 25.19 9 48.3 47 -1.6 29.2 0
15:40 1024 30.24 853 25.19 9 48.3 49 -1.1 30.1 0
15:41 1024 30.24 853 25.19 9 48.3 46 -2.1 28.3 0
15:42 1024 30.24 853 25.19 9 48.3 47 -1.6 29.2 0
15:43 1024 30.24 853 25.19 9 48.2 46 -1.9 28.6 0
15:44 1024 30.24 853 25.19 9 48.2 45 -2.2 28 0
15:45 1024 30.24 853 25.19 9 48.2 43 -2.7 27.1 0
15:46 1024 30.24 853 25.19 9 48.3 45 -2.2 28 0
15:47 1024 30.24 853 25.19 9.1 48.3 45 -2.2 28 0
15:48 1024 30.24 853 25.19 9 48.3 44 -2.5 27.4 0
15:49 1024 30.24 853 25.19 9 48.2 42 -3.1 26.4 0
15:50 1024 30.24 853 25.19 9 48.2 46 -2 28.5 0
15:51 1024 30.24 853 25.19 9.1 48.3 45 -2.3 27.9 0
15:52 1024 30.24 853 25.19 9.1 48.4 46 -2 28.4 0
15:53 1023 30.21 853 25.19 9.2 48.6 44 -2.5 27.5 0
15:54 1023 30.21 853 25.19 9.3 48.7 44 -2.2 28 0
15:55 1024 30.24 853 25.19 9.4 48.9 45 -2 28.4 0
15:56 1024 30.24 853 25.19 9.4 49 45 -1.8 28.7 0
15:57 1024 30.24 853 25.19 9.5 49 44 -2 28.3 0
15:58 1024 30.24 853 25.19 9.5 49.2 46 -1.4 29.4 0
15:59 1024 30.24 853 25.19 9.7 49.4 48 -0.7 30.7 0
16:00 1023 30.21 853 25.19 9.7 49.4 47 -1.1 30 0
16:01 1023 30.21 853 25.19 9.7 49.5 44 -1.9 28.5 0
16:02 1024 30.24 853 25.19 9.8 49.6 43 -2.2 28.1 0
16:03 1024 30.24 853 25.19 9.6 49.3 47 -1.1 30 0
16:04 1023 30.21 853 25.19 9.6 49.3 45 -1.8 28.8 0
16:05 1024 30.24 853 25.19 9.6 49.3 45 -1.6 29.1 0
16:06 1024 30.24 853 25.19 9.6 49.3 43 -2.5 27.6 0
16:07 1024 30.24 853 25.19 9.5 49.2 42 -2.7 27.1 0
16:08 1023 30.21 853 25.19 9.4 49 46 -1.5 29.2 0
16:09 1023 30.21 853 25.19 9.5 49.1 47 -1.3 29.7 0
16:10 1023 30.21 853 25.19 9.5 49.1 46 -1.6 29.1 0
16:11 1023 30.21 853 25.19 9.5 49.2 44 -2.1 28.2 0
16:12 1024 30.24 853 25.19 9.6 49.2 47 -1.2 29.9 0
16:13 1023 30.21 853 25.19 9.6 49.3 44 -2 28.3 0
16:14 1023 30.21 853 25.19 9.6 49.3 42 -2.6 27.4 0
16:15 1023 30.21 853 25.19 9.6 49.2 43 -2.5 27.5 0
16:16 1023 30.21 853 25.19 9.5 49.1 43 -2.4 27.6 0
16:17 1023 30.21 853 25.19 9.4 48.9 47 -1.3 29.7 0
16:18 1023 30.21 853 25.19 9.3 48.8 43 -2.5 27.5 0
16:19 1023 30.21 853 25.19 9.3 48.7 44 -2.4 27.8 0
16:20 1023 30.21 853 25.19 9.2 48.5 45 -2.1 28.3 0
16:21 1023 30.21 853 25.19 9.1 48.4 45 -2.1 28.2 0
16:22 1023 30.21 853 25.19 9.1 48.3 44 -2.5 27.4 0
16:23 1023 30.21 853 25.19 9 48.3 45 -2.3 27.8 0
16:24 1023 30.21 853 25.19 9 48.3 44 -2.4 27.7 0
16:25 1023 30.21 853 25.19 9.1 48.4 47 -1.7 29 0
16:26 1023 30.21 853 25.19 9.2 48.5 43 -2.9 26.8 0
16:27 1023 30.21 853 25.19 9.2 48.6 43 -2.6 27.4 0
16:28 1023 30.21 853 25.19 9.3 48.7 45 -2 28.3 0
16:29 1023 30.21 853 25.19 9.3 48.8 50 -0.4 31.2 0
16:30 1023 30.21 853 25.19 9.5 49 46 -1.7 29 0
16:31 1023 30.21 853 25.19 9.5 49.2 47 -1.2 29.8 0
16:32 1023 30.21 853 25.19 9.7 49.4 45 -1.7 28.9 0
16:33 1023 30.21 853 25.19 9.7 49.4 45 -1.6 29.1 0
16:34 1023 30.21 853 25.19 9.7 49.5 46 -1.3 29.7 0
16:35 1023 30.21 853 25.19 9.8 49.7 48 -0.5 31.1 0
16:36 1023 30.21 853 25.19 9.9 49.7 45 -1.5 29.2 0
16:37 1024 30.24 853 25.19 9.9 49.7 45 -1.6 29.2 0
16:38 1024 30.24 853 25.19 9.9 49.7 45 -1.4 29.6 0
16:39 1023 30.21 853 25.19 9.9 49.7 43 -2 28.5 0
16:40 1024 30.24 853 25.19 9.9 49.7 46 -1.1 30 0
16:41 1024 30.24 853 25.19 10 49.9 41 -2.5 27.5 0
16:42 1024 30.24 853 25.19 10.2 50.4 44 -1.3 29.6 0
16:43 1024 30.24 853 25.19 10.4 50.7 43 -1.6 29.1 0
16:44 1024 30.24 853 25.19 10.5 50.8 45 -1 30.2 0
16:45 1024 30.24 853 25.19 10.7 51.3 44 -1 30.2 0
16:46 1024 30.24 853 25.19 10.9 51.6 44 -0.9 30.4 0
16:47 1024 30.24 853 25.19 10.9 51.6 41 -1.8 28.7 0
16:48 1024 30.24 853 25.19 10.9 51.7 43 -1.1 30.1 0
16:49 1024 30.24 853 25.19 10.9 51.7 41 -1.9 28.6 0
16:50 1024 30.24 853 25.19 11 51.7 45 -0.5 31.1 0
16:51 1024 30.24 853 25.19 11 51.8 41 -1.8 28.8 0
16:52 1023 30.21 853 25.19 10.9 51.7 41 -1.6 29 0
16:53 1023 30.21 853 25.19 10.7 51.3 42 -1.5 29.3 0
16:54 1024 30.24 853 25.19 10.4 50.8 47 -0.4 31.2 0
16:55 1024 30.24 853 25.19 10.2 50.4 45 -1.2 29.8 0
16:56 1024 30.24 853 25.19 10 50 45 -1.3 29.6 0
16:57 1024 30.24 853 25.19 9.8 49.7 45 -1.6 29.1 0
16:58 1024 30.24 853 25.19 9.7 49.4 44 -2 28.5 0
16:59 1024 30.24 853 25.19 9.6 49.2 45 -1.6 29.1 0
17:00 1024 30.24 853 25.19 9.5 49 46 -1.4 29.4 0
17:01 1024 30.24 853 25.19 9.4 48.9 45 -1.9 28.6 0
17:02 1024 30.24 853 25.19 9.3 48.7 46 -1.6 29.1 0
17:03 1024 30.24 853 25.19 9.2 48.6 45 -1.9 28.5 0
17:04 1024 30.24 853 25.19 9.2 48.6 46 -1.7 28.9 0
17:05 1024 30.24 853 25.19 9.3 48.7 44 -2.3 27.9 0
17:06 1024 30.24 853 25.19 9.3 48.7 47 -1.5 29.3 0
17:07 1024 30.24 853 25.19 9.3 48.7 45 -2 28.3 0
17:08 1024 30.24 853 25.19 9.3 48.7 46 -1.7 29 0
17:09 1024 30.24 853 25.19 9.3 48.7 48 -1.2 29.8 0
17:10 1024 30.24 853 25.19 9.3 48.7 47 -1.4 29.4 0
17:11 1024 30.24 853 25.19 9.3 48.7 46 -1.6 29.2 0
17:12 1024 30.24 853 25.19 9.4 48.8 47 -1.3 29.7 0
17:13 1024 30.24 853 25.19 9.4 48.9 46 -1.5 29.2 0
17:14 1024 30.24 853 25.19 9.4 48.9 48 -1 30.2 0
17:15 1024 30.24 853 25.19 9.4 49 44 -2.1 28.3 0
17:16 1024 30.24 853 25.19 9.4 49 46 -1.6 29.1 0
17:17 1024 30.24 853 25.19 9.4 49 45 -1.8 28.8 0
17:18 1024 30.24 853 25.19 9.4 49 48 -1 30.2 0
17:19 1024 30.24 853 25.19 9.4 49 47 -1.1 29.9 0